Terminal Aerodrome Forecast
Issued by NWS

Home | Current Version | Previous Version | Text Only | Print | Product List | Glossary Off
Versions: 1 2 3 4 5 6 7 8 9 10 11 12 13 14 15 16

000
FTUS43 KTOP 280500
TAFMHK
TAF
KMHK 280528Z 2806/2906 14007KT P6SM FEW250
     FM281400 20009KT P6SM FEW250
     FM282000 23011KT P6SM SCT250
     FM290000 26010KT P6SM FEW250
     FM290300 32012KT P6SM FEW030=

USA.gov is the U.S. government's official web portal to all federal, state and local government web resources and services.